Aitana Del Carmen — EDCN — position and weather

sailwx.info

Track history (hours):
 
Tides and Currents Weather Stations Pressure Air Temp Water Temp Dewpoint Dewpoint Depression Visibility Wind Speed Wind Dir Waves Ship Positions

Aitana Del Carmen

Last reported at 2018-Jun-17 15:11 UTC. Time now 2018-Jun-22 00:02 UTC.
Position N 36°09' W 005°25'.

Length 27 m.

Type: Ship. MMSI: 224131460.

Date/timePositionNaut miles runAvg speedWind from/ knotsBaromVisibWave heightAir tempDewpointWater temp
2018-Jun-17 15:11N 36°09' W 005°25'  
2018-Jun-11 19:54N 36°09' W 005°27'3 7.4
2018-Jun-11 19:30N 36°07' W 005°24'4 8.8
2018-Jun-11 19:00N 36°03' W 005°22'4 7.7
2018-Jun-11 18:30N 35°59' W 005°21'4 8.5
2018-Jun-11 18:00N 35°55' W 005°20'0 0.1
2018-Jun-11 17:30N 35°55' W 005°20'0 0.0
2018-Jun-11 17:00N 35°55' W 005°20'0 0.0
2018-Jun-11 16:30N 35°55' W 005°20'0 0.0
2018-Jun-11 16:00N 35°55' W 005°20'0 0.0
2018-Jun-11 15:30N 35°55' W 005°20'0 0.0
2018-Jun-11 15:00N 35°55' W 005°20'1 1.7
2018-Jun-11 14:30N 35°55' W 005°21'11 0.3
2018-Jun-09 20:05N 36°06' W 005°23'1 8.8
2018-Jun-09 20:00N 36°05' W 005°23'1 2.7
2018-Jun-09 19:30N 36°04' W 005°22'1 2.6
2018-Jun-09 19:00N 36°05' W 005°23'  
Track history (hours):
 
Tides and Currents Weather Stations Pressure Air Temp Water Temp Dewpoint Dewpoint Depression Visibility Wind Speed Wind Dir Waves Ship Positions

Aitana Del Carmen

Last reported at 2018-Jun-17 15:11 UTC. Time now 2018-Jun-22 00:02 UTC.
Position N 36°09' W 005°25'.

Length 27 m.

Type: Ship. MMSI: 224131460.

Date/timePositionNaut miles runAvg speedWind from/ knotsBaromVisibWave heightAir tempDewpointWater temp
2018-Jun-17 15:11N 36°09' W 005°25'  
2018-Jun-11 19:54N 36°09' W 005°27'3 7.4
2018-Jun-11 19:30N 36°07' W 005°24'4 8.8
2018-Jun-11 19:00N 36°03' W 005°22'4 7.7
2018-Jun-11 18:30N 35°59' W 005°21'4 8.5
2018-Jun-11 18:00N 35°55' W 005°20'0 0.1
2018-Jun-11 17:30N 35°55' W 005°20'0 0.0
2018-Jun-11 17:00N 35°55' W 005°20'0 0.0
2018-Jun-11 16:30N 35°55' W 005°20'0 0.0
2018-Jun-11 16:00N 35°55' W 005°20'0 0.0
2018-Jun-11 15:30N 35°55' W 005°20'0 0.0
2018-Jun-11 15:00N 35°55' W 005°20'1 1.7
2018-Jun-11 14:30N 35°55' W 005°21'11 0.3
2018-Jun-09 20:05N 36°06' W 005°23'1 8.8
2018-Jun-09 20:00N 36°05' W 005°23'1 2.7
2018-Jun-09 19:30N 36°04' W 005°22'1 2.6
2018-Jun-09 19:00N 36°05' W 005°23'  

Dump ship's entire track history